Messwerte Shirley

Temperatur

Temperatur
°C
1617969600 8.00 8.00 7
1617973200 9.00 9.00 8
1617976800 10.00 10.00 9
1617980400 11.00 11.00 11
1617984000 12.00 12.00 11
1617987600 13.00 13.00 12
1617991200 14.00 14.00 12
1617994800 15.00 15.00 11
1617998400 16.00 16.00 10
1618002000 17.00 17.00 9
1618005600 18.00 18.00 9
1618009200 19.00 19.00 8
1618012800 20.00 20.00 9
1618016400 21.00 21.00 8
1618020000 22.00 22.00 8
1618023600 23.00 23.00 8
1618027200 0.00 0.00 8
1618030800 1.00 1.00 8
1618034400 2.00 2.00
1618038000 3.00 3.00 9
1618041600 4.00 4.00 9
1618045200 5.00 5.00 10
1618048800 6.00 6.00 10
1618052400 7.00 7.00

Wir danken unserem Partner:

Aktuellste Messwerte

Wettercharakter
Wetter: bedeckt
Temperatur
9 °C
Feuchtigkeit
93 %
Wind
0 km/h, -
Luftdruck
1018 hPa
Messzeit: 10. April 2021, 7.00Datenquelle: METAR

Weitere Messstationen in der Nähe

Messstation Temperatur Entfernung
Islip 10 °C 20 km
Westhampton Beach 9 °C 20 km
Bridgeport 9 °C 45 km
Farmingdale 11 °C 47 km
New Haven 9 °C 49 km
East Hampton 8 °C 54 km
Groton 8 °C 65 km

Wind

Windrichtung Böen Mittelwind
° km/h km/h
1617969600 8.00 7.00 - 8.00 0
1617973200 9.00 8.00 - 9.00 0
1617976800 10.00 9.00 - 10.00 0
1617980400 11.00 10.00 - 11.00 0
1617984000 12.00 11.00 - 12.00 160° 15
1617987600 13.00 12.00 - 13.00 150° 20
1617991200 14.00 13.00 - 14.00 180° 20
1617994800 15.00 14.00 - 15.00 190° 15
1617998400 16.00 15.00 - 16.00 190° 15
1618002000 17.00 16.00 - 17.00 170° 15
1618005600 18.00 17.00 - 18.00 210° 15
1618009200 19.00 18.00 - 19.00 200° 15
1618012800 20.00 19.00 - 20.00 210° 10
1618016400 21.00 20.00 - 21.00 200° 10
1618020000 22.00 21.00 - 22.00 190° 15
1618023600 23.00 22.00 - 23.00 190° 5
1618027200 0.00 23.00 - 0.00 150° 10
1618030800 1.00 0.00 - 1.00 200° 10
1618034400 2.00 1.00 - 2.00
1618038000 3.00 2.00 - 3.00 240° 0
1618041600 4.00 3.00 - 4.00 0
1618045200 5.00 4.00 - 5.00 180° 5
1618048800 6.00 5.00 - 6.00 0
1618052400 7.00 6.00 - 7.00

Ihre Wetterstation

Fehlt Ihre Wetterstation auf unserem Portal?

Schreiben Sie an network@meteonews.ch

Klima

Wann ist es am wärmsten? Wann regnet es am wenigsten? Unsere Klimadaten geben Auskunft.